createdAt,value
2022-09-15T00:01:55.013Z,101015.88
2022-09-15T00:04:21.517Z,101030.59
2022-09-15T00:06:47.978Z,101028.94
2022-09-15T00:09:14.390Z,101020.28
2022-09-15T00:11:40.890Z,101022.97
2022-09-15T00:14:08.501Z,101036.91
2022-09-15T00:16:35.213Z,101025.75
2022-09-15T00:19:02.740Z,101030.97
2022-09-15T00:21:32.439Z,101028.47
2022-09-15T00:24:00.089Z,101026.66
2022-09-15T00:26:28.596Z,101026.72
2022-09-15T00:28:57.038Z,101032.00
2022-09-15T00:31:25.607Z,101032.88
2022-09-15T00:33:54.874Z,100995.00
2022-09-15T00:36:22.869Z,101030.34
2022-09-15T00:38:49.445Z,101034.69
2022-09-15T00:41:18.721Z,101034.69
2022-09-15T00:43:53.558Z,101034.69
2022-09-15T00:46:23.569Z,101028.75
2022-09-15T00:48:59.327Z,101021.03
2022-09-15T00:51:32.806Z,101030.50
2022-09-15T00:54:01.657Z,101014.97
2022-09-15T00:56:29.836Z,101039.03
2022-09-15T00:59:01.948Z,101015.75
2022-09-15T01:01:31.160Z,101031.19
2022-09-15T01:03:58.396Z,101038.84
2022-09-15T01:06:41.155Z,101044.91
2022-09-15T01:09:13.977Z,101049.25
2022-09-15T01:11:41.153Z,101042.22
2022-09-15T01:14:07.942Z,101046.47
2022-09-15T01:16:59.291Z,101040.34
2022-09-15T01:19:43.714Z,101042.91
2022-09-15T01:22:31.764Z,101049.84
2022-09-15T01:25:09.064Z,101012.78
2022-09-15T01:28:07.123Z,101019.56
2022-09-15T01:30:56.535Z,101044.53
2022-09-15T01:33:37.124Z,101051.41
2022-09-15T01:36:37.666Z,101048.78
2022-09-15T01:39:14.118Z,101024.59
2022-09-15T01:41:45.207Z,101048.78
2022-09-15T01:44:22.069Z,101041.97
2022-09-15T01:46:54.698Z,101054.13
2022-09-15T01:49:27.906Z,101019.56
2022-09-15T01:51:54.860Z,101036.69
2022-09-15T01:54:29.871Z,101032.34
2022-09-15T01:56:57.571Z,101045.25
2022-09-15T01:59:24.419Z,101045.25
2022-09-15T02:02:13.732Z,101033.31
2022-09-15T02:04:48.203Z,101005.59
2022-09-15T02:07:20.694Z,101041.72
2022-09-15T02:09:53.587Z,101002.97
2022-09-15T02:12:33.453Z,101002.97
2022-09-15T02:15:05.283Z,101046.13
2022-09-15T02:17:36.014Z,101045.25
2022-09-15T02:20:13.552Z,101010.84
2022-09-15T02:22:43.164Z,101010.84
2022-09-15T02:25:20.115Z,101043.66
2022-09-15T02:27:51.129Z,101032.38
2022-09-15T02:30:19.181Z,101048.88
2022-09-15T02:33:00.139Z,101038.44
2022-09-15T02:35:29.137Z,101015.34
2022-09-15T02:37:56.459Z,101048.09
2022-09-15T02:40:23.158Z,101045.50
2022-09-15T02:42:55.000Z,101040.34
2022-09-15T02:45:22.134Z,101043.75
2022-09-15T02:47:48.709Z,101048.03
2022-09-15T02:50:15.230Z,101045.47
2022-09-15T02:52:41.695Z,101049.81
2022-09-15T02:55:08.884Z,101053.31
2022-09-15T02:57:35.423Z,101054.22
2022-09-15T03:00:03.301Z,101050.72
2022-09-15T03:02:29.857Z,101050.72
2022-09-15T03:04:56.364Z,101050.72
2022-09-15T03:07:22.818Z,101055.91
2022-09-15T03:09:49.326Z,101048.94
2022-09-15T03:12:15.772Z,101044.59
2022-09-15T03:14:42.218Z,101048.91
2022-09-15T03:17:08.669Z,101054.13
2022-09-15T03:19:35.300Z,101060.19
2022-09-15T03:22:01.730Z,101064.53
2022-09-15T03:24:28.247Z,101059.34
2022-09-15T03:26:54.693Z,101071.50
2022-09-15T03:29:21.140Z,101065.31
2022-09-15T03:31:47.721Z,101068.00
2022-09-15T03:34:14.167Z,101073.22
2022-09-15T03:36:40.629Z,101066.19
2022-09-15T03:39:07.097Z,101070.53
2022-09-15T03:41:33.589Z,101063.53
2022-09-15T03:44:00.024Z,101068.78
2022-09-15T03:46:26.504Z,101058.34
2022-09-15T03:48:52.979Z,101054.03
2022-09-15T03:51:19.444Z,101059.25
2022-09-15T03:53:46.260Z,101062.81
2022-09-15T03:56:25.694Z,101066.25
2022-09-15T03:58:53.035Z,101057.53
2022-09-15T04:01:20.568Z,101032.63
2022-09-15T04:03:50.892Z,101034.31
2022-09-15T04:06:19.560Z,101069.75
2022-09-15T04:08:46.368Z,101060.19
2022-09-15T04:11:13.440Z,101062.88
2022-09-15T04:13:40.989Z,101065.44
2022-09-15T04:16:19.015Z,101055.09
2022-09-15T04:18:46.025Z,101062.81
2022-09-15T04:21:14.902Z,101054.19
2022-09-15T04:23:42.976Z,101059.31
2022-09-15T04:26:24.966Z,101029.25
2022-09-15T04:28:51.510Z,101064.53
2022-09-15T04:31:18.597Z,101058.47
2022-09-15T04:33:46.321Z,101061.16
2022-09-15T04:36:18.783Z,101059.44
2022-09-15T04:38:45.833Z,101066.47
2022-09-15T04:41:13.573Z,101063.00
2022-09-15T04:43:41.009Z,101063.00
2022-09-15T04:46:07.509Z,101061.28
2022-09-15T04:48:34.327Z,101061.34
2022-09-15T04:51:02.822Z,101020.94
2022-09-15T04:53:29.656Z,101063.19
2022-09-15T04:56:14.079Z,101071.03
2022-09-15T04:58:43.439Z,101067.63
2022-09-15T05:01:16.169Z,101058.09
2022-09-15T05:03:43.342Z,101063.38
2022-09-15T05:06:12.572Z,101078.97
2022-09-15T05:08:39.396Z,101059.91
2022-09-15T05:11:11.438Z,101076.41
2022-09-15T05:13:38.880Z,101077.28
2022-09-15T05:16:14.229Z,101038.44
2022-09-15T05:18:42.810Z,101021.19
2022-09-15T05:21:11.131Z,101066.91
2022-09-15T05:23:38.103Z,101074.72
2022-09-15T05:26:11.396Z,101026.44
2022-09-15T05:28:38.718Z,101072.13
2022-09-15T05:31:20.221Z,101042.91
2022-09-15T05:33:47.746Z,101074.78
2022-09-15T05:36:14.380Z,101081.75
2022-09-15T05:38:41.296Z,101075.66
2022-09-15T05:41:12.648Z,101073.22
2022-09-15T05:43:40.850Z,101093.13
2022-09-15T05:46:07.848Z,101089.66
2022-09-15T05:48:34.832Z,101089.69
2022-09-15T05:51:01.409Z,101092.34
2022-09-15T05:53:28.233Z,101094.97
2022-09-15T05:55:59.135Z,101096.69
2022-09-15T05:58:26.729Z,101099.25
2022-09-15T06:00:54.506Z,101101.06
2022-09-15T06:03:22.013Z,101100.13
2022-09-15T06:05:48.615Z,101107.97
2022-09-15T06:08:15.503Z,101108.88
2022-09-15T06:10:44.422Z,101090.72
2022-09-15T06:13:10.868Z,101108.88
2022-09-15T06:15:37.328Z,101102.81
2022-09-15T06:18:03.849Z,101108.88
2022-09-15T06:20:30.330Z,101103.66
2022-09-15T06:22:56.733Z,101106.22
2022-09-15T06:25:23.166Z,101110.56
2022-09-15T06:27:49.963Z,101110.53
2022-09-15T06:30:16.710Z,101115.75
2022-09-15T06:32:47.384Z,101094.97
2022-09-15T06:35:14.575Z,101106.13
2022-09-15T06:37:40.898Z,101108.66
2022-09-15T06:40:07.632Z,101110.34
2022-09-15T06:42:34.055Z,101111.16
2022-09-15T06:45:00.417Z,101125.00
2022-09-15T06:47:26.799Z,101130.19
2022-09-15T06:49:53.189Z,101135.31
2022-09-15T06:52:19.508Z,101137.84
2022-09-15T06:54:45.872Z,101142.09
2022-09-15T06:57:12.186Z,101147.25
2022-09-15T06:59:38.536Z,101144.56
2022-09-15T07:02:05.446Z,101153.16
2022-09-15T07:04:33.424Z,101154.88
2022-09-15T07:06:59.755Z,101146.94
2022-09-15T07:09:26.127Z,101151.13
2022-09-15T07:11:52.510Z,101155.34
2022-09-15T07:14:18.860Z,101164.81
2022-09-15T07:16:45.266Z,101150.69
2022-09-15T07:19:11.616Z,101157.50
2022-09-15T07:21:38.025Z,101159.97
2022-09-15T07:24:07.282Z,101159.78
2022-09-15T07:26:34.227Z,101154.41
2022-09-15T07:29:01.753Z,101151.66
2022-09-15T07:31:29.681Z,101148.81
2022-09-15T07:33:56.083Z,101156.56
2022-09-15T07:36:22.758Z,101147.75
2022-09-15T07:38:49.565Z,101152.00
2022-09-15T07:41:17.416Z,101147.50
2022-09-15T07:43:47.668Z,101159.56
2022-09-15T07:46:14.611Z,101155.84
2022-09-15T07:48:43.431Z,101170.53
2022-09-15T07:51:09.808Z,101164.22
2022-09-15T07:53:36.140Z,101168.38
2022-09-15T07:56:02.709Z,101169.00
2022-09-15T07:58:29.093Z,101173.16
2022-09-15T08:01:00.733Z,101172.13
2022-09-15T08:03:27.169Z,101178.03
2022-09-15T08:05:57.517Z,101176.13
2022-09-15T08:08:23.887Z,101177.66
2022-09-15T08:10:50.205Z,101176.56
2022-09-15T08:13:16.560Z,101185.09
2022-09-15T08:15:42.949Z,101187.56
2022-09-15T08:18:09.348Z,101182.25
2022-09-15T08:20:38.289Z,101182.13
2022-09-15T08:23:04.630Z,101182.75
2022-09-15T08:25:30.955Z,101181.72
2022-09-15T08:27:57.275Z,101198.13
2022-09-15T08:30:23.626Z,101194.38
2022-09-15T08:32:50.286Z,101203.81
2022-09-15T08:35:16.787Z,101195.72
2022-09-15T08:37:43.142Z,101201.63
2022-09-15T08:40:31.467Z,101208.50
2022-09-15T08:42:59.848Z,101207.41
2022-09-15T08:45:28.218Z,101214.22
2022-09-15T08:47:57.373Z,101217.56
2022-09-15T08:50:39.906Z,101219.28
2022-09-15T08:53:07.861Z,101222.75
2022-09-15T08:55:40.154Z,101223.59
2022-09-15T08:58:11.620Z,101220.03
2022-09-15T09:00:39.717Z,101226.00
2022-09-15T09:03:12.091Z,101219.81
2022-09-15T09:05:38.471Z,101236.34
2022-09-15T09:08:19.780Z,101234.56
2022-09-15T09:10:51.459Z,101236.19
2022-09-15T09:13:20.929Z,101243.13
2022-09-15T09:15:50.276Z,101245.75
2022-09-15T09:18:22.661Z,101239.59
2022-09-15T09:21:04.041Z,101242.16
2022-09-15T09:23:32.629Z,101245.56
2022-09-15T09:25:59.933Z,101242.88
2022-09-15T09:28:26.236Z,101239.44
2022-09-15T09:30:52.825Z,101232.56
2022-09-15T09:33:26.328Z,101233.34
2022-09-15T09:35:52.718Z,101231.44
2022-09-15T09:38:28.467Z,101233.03
2022-09-15T09:40:59.867Z,101229.28
2022-09-15T09:43:29.315Z,101226.44
2022-09-15T09:45:55.783Z,101234.97
2022-09-15T09:48:23.946Z,101245.22
2022-09-15T09:50:50.728Z,101230.97
2022-09-15T09:53:27.722Z,101244.00
2022-09-15T09:55:55.317Z,101235.25
2022-09-15T09:58:23.240Z,101239.66
2022-09-15T10:00:50.199Z,101233.50
2022-09-15T10:03:16.505Z,101234.31
2022-09-15T10:05:43.637Z,101240.34
2022-09-15T10:08:17.253Z,101238.50
2022-09-15T10:10:50.963Z,101243.56
2022-09-15T10:13:17.476Z,101240.75
2022-09-15T10:15:44.134Z,101244.88
2022-09-15T10:18:25.358Z,101249.94
2022-09-15T10:20:51.757Z,101247.09
2022-09-15T10:23:18.071Z,101235.53
2022-09-15T10:25:58.628Z,101242.28
2022-09-15T10:28:26.549Z,101240.25
2022-09-15T10:31:05.075Z,101240.78
2022-09-15T10:33:31.414Z,101236.91
2022-09-15T10:36:11.416Z,101240.09
2022-09-15T10:38:37.740Z,101241.38
2022-09-15T10:41:25.813Z,101241.00
2022-09-15T10:44:09.609Z,101235.41
2022-09-15T10:46:54.901Z,101224.59
2022-09-15T10:49:27.304Z,101224.28
2022-09-15T10:52:04.953Z,101229.22
2022-09-15T10:54:40.243Z,101234.03
2022-09-15T10:57:06.567Z,101239.69
2022-09-15T10:59:45.262Z,101234.09
2022-09-15T11:02:38.000Z,101234.78
2022-09-15T11:05:13.533Z,101226.88
2022-09-15T11:07:45.174Z,101238.34
2022-09-15T11:10:14.344Z,101236.50
2022-09-15T11:12:43.686Z,101247.84
2022-09-15T11:15:11.351Z,101253.19
2022-09-15T11:17:49.572Z,101244.59
2022-09-15T11:20:15.941Z,101256.00
2022-09-15T11:22:52.847Z,101247.19
2022-09-15T11:25:21.482Z,101249.72
2022-09-15T11:27:56.631Z,101251.34
2022-09-15T11:30:22.976Z,101250.50
2022-09-15T11:32:57.902Z,101262.09
2022-09-15T11:35:27.680Z,101254.53
2022-09-15T11:37:55.584Z,101261.03
2022-09-15T11:40:30.135Z,101260.41
2022-09-15T11:43:25.804Z,101266.69
2022-09-15T11:45:54.838Z,101261.59
2022-09-15T11:48:23.868Z,101269.44
2022-09-15T11:50:52.859Z,101254.53
2022-09-15T11:53:19.436Z,101262.44
2022-09-15T11:55:55.007Z,101261.34
2022-09-15T11:58:26.190Z,101261.16
2022-09-15T12:00:55.586Z,101265.44
2022-09-15T12:03:35.289Z,101261.75
2022-09-15T12:06:21.919Z,101258.16
2022-09-15T12:09:01.894Z,101258.06
2022-09-15T12:11:30.799Z,101261.75
2022-09-15T12:13:57.881Z,101262.72
2022-09-15T12:16:25.069Z,101264.66
2022-09-15T12:18:56.495Z,101266.56
2022-09-15T12:21:22.843Z,101266.69
2022-09-15T12:24:01.618Z,101264.03
2022-09-15T12:26:28.437Z,101275.53
2022-09-15T12:29:20.775Z,101279.84
2022-09-15T12:31:47.317Z,101276.22
2022-09-15T12:34:25.930Z,101280.44
2022-09-15T12:36:53.377Z,101289.94
2022-09-15T12:39:30.180Z,101293.38
2022-09-15T12:42:16.851Z,101289.03
2022-09-15T12:44:54.180Z,101289.94
2022-09-15T12:47:23.673Z,101287.28
2022-09-15T12:49:51.108Z,101281.00
2022-09-15T12:52:20.013Z,101285.25
2022-09-15T12:54:50.671Z,101281.50
2022-09-15T12:57:23.178Z,101291.81
2022-09-15T12:59:49.517Z,101299.47
2022-09-15T13:02:34.796Z,101302.78
2022-09-15T13:05:01.270Z,101289.41
2022-09-15T13:07:31.894Z,101298.03
2022-09-15T13:10:07.547Z,101296.03
2022-09-15T13:12:36.416Z,101294.16
2022-09-15T13:15:06.288Z,101286.09
2022-09-15T13:17:33.275Z,101289.53
2022-09-15T13:20:07.183Z,101282.41
2022-09-15T13:22:39.939Z,101291.94
2022-09-15T13:25:09.372Z,101280.31
2022-09-15T13:27:37.927Z,101280.19
2022-09-15T13:30:22.769Z,101278.34
2022-09-15T13:32:52.121Z,101286.06
2022-09-15T13:35:37.435Z,101279.94
2022-09-15T13:38:23.733Z,101284.38
2022-09-15T13:41:10.346Z,101282.72
2022-09-15T13:43:40.791Z,101289.81
2022-09-15T13:46:20.071Z,101286.31
2022-09-15T13:48:46.530Z,101282.78
2022-09-15T13:51:23.716Z,101288.09
2022-09-15T13:53:53.186Z,101300.47
2022-09-15T13:56:26.364Z,101294.44
2022-09-15T13:58:56.324Z,101293.66
2022-09-15T14:01:26.341Z,101295.44
2022-09-15T14:04:01.945Z,101298.78
2022-09-15T14:06:30.447Z,101290.75
2022-09-15T14:09:00.121Z,101301.03
2022-09-15T14:11:29.388Z,101297.50
2022-09-15T14:13:57.233Z,101295.91
2022-09-15T14:16:28.120Z,101296.16
2022-09-15T14:18:55.653Z,101288.50
2022-09-15T14:21:23.255Z,101291.13
2022-09-15T14:23:50.551Z,101287.38
2022-09-15T14:26:18.555Z,101291.34
2022-09-15T14:28:52.250Z,101298.97
2022-09-15T14:31:26.850Z,101298.09
2022-09-15T14:33:53.415Z,101295.16
2022-09-15T14:36:25.473Z,101300.03
2022-09-15T14:39:04.062Z,101299.03
2022-09-15T14:41:33.639Z,101309.59
2022-09-15T14:43:59.991Z,101301.91
2022-09-15T14:46:35.274Z,101307.44
2022-09-15T14:49:08.584Z,101305.91
2022-09-15T14:51:35.281Z,101303.44
2022-09-15T14:54:03.089Z,101299.94
2022-09-15T14:56:36.825Z,101304.97
2022-09-15T14:59:08.012Z,101309.00
2022-09-15T15:01:36.297Z,101306.19
2022-09-15T15:04:17.747Z,101312.31
2022-09-15T15:07:02.546Z,101310.69
2022-09-15T15:09:33.954Z,101314.28
2022-09-15T15:12:06.042Z,101311.75
2022-09-15T15:14:32.653Z,101310.19
2022-09-15T15:17:00.591Z,101314.53
2022-09-15T15:19:53.456Z,101318.09
2022-09-15T15:22:20.749Z,101311.09
2022-09-15T15:24:48.367Z,101307.69
2022-09-15T15:27:32.861Z,101314.94
2022-09-15T15:30:19.458Z,101315.97
2022-09-15T15:32:45.925Z,101315.28
2022-09-15T15:35:19.240Z,101304.94
2022-09-15T15:37:46.370Z,101319.09
2022-09-15T15:40:16.736Z,101309.53
2022-09-15T15:42:57.710Z,101313.16
2022-09-15T15:45:27.540Z,101312.38
2022-09-15T15:47:53.916Z,101315.13
2022-09-15T15:50:22.113Z,101325.09
2022-09-15T15:52:49.430Z,101322.03
2022-09-15T15:55:17.346Z,101318.94
2022-09-15T15:57:44.603Z,101329.81
2022-09-15T16:00:20.892Z,101332.00
2022-09-15T16:02:48.222Z,101329.66
2022-09-15T16:05:14.648Z,101333.28
2022-09-15T16:07:42.370Z,101338.69
2022-09-15T16:10:14.198Z,101337.09
2022-09-15T16:12:40.547Z,101332.00
2022-09-15T16:15:11.115Z,101341.91
2022-09-15T16:17:37.491Z,101341.13
2022-09-15T16:20:03.990Z,101335.16
2022-09-15T16:22:30.359Z,101341.59
2022-09-15T16:24:56.689Z,101340.03
2022-09-15T16:27:23.058Z,101340.13
2022-09-15T16:29:49.366Z,101342.88
2022-09-15T16:32:19.950Z,101343.88
2022-09-15T16:34:46.366Z,101347.47
2022-09-15T16:37:12.677Z,101343.09
2022-09-15T16:39:39.055Z,101335.28
2022-09-15T16:42:05.486Z,101341.59
2022-09-15T16:44:31.837Z,101336.50
2022-09-15T16:46:58.222Z,101334.94
2022-09-15T16:49:24.618Z,101336.75
2022-09-15T16:51:50.964Z,101336.91
2022-09-15T16:54:18.488Z,101342.13
2022-09-15T16:56:45.251Z,101340.47
2022-09-15T16:59:11.705Z,101353.34
2022-09-15T17:01:38.424Z,101341.31
2022-09-15T17:04:11.293Z,101348.59
2022-09-15T17:06:37.675Z,101343.63
2022-09-15T17:09:04.062Z,101350.06
2022-09-15T17:11:30.489Z,101350.44
2022-09-15T17:13:56.821Z,101353.34
2022-09-15T17:16:23.240Z,101359.78
2022-09-15T17:18:49.605Z,101355.66
2022-09-15T17:21:16.923Z,101354.16
2022-09-15T17:23:45.366Z,101359.59
2022-09-15T17:26:17.141Z,101360.69
2022-09-15T17:28:43.530Z,101353.88
2022-09-15T17:31:17.755Z,101353.16
2022-09-15T17:33:44.841Z,101355.97
2022-09-15T17:36:11.346Z,101363.16
2022-09-15T17:38:37.714Z,101356.38
2022-09-15T17:41:04.087Z,101373.19
2022-09-15T17:43:30.984Z,101371.63
2022-09-15T17:45:58.004Z,101364.84
2022-09-15T17:48:24.818Z,101369.41
2022-09-15T17:50:51.517Z,101366.94
2022-09-15T17:53:18.819Z,101364.41
2022-09-15T17:55:45.175Z,101371.59
2022-09-15T17:58:11.510Z,101365.66
2022-09-15T18:00:38.831Z,101363.22
2022-09-15T18:03:10.862Z,101366.03
2022-09-15T18:05:37.461Z,101374.00
2022-09-15T18:08:04.684Z,101375.91
2022-09-15T18:10:32.906Z,101371.66
2022-09-15T18:12:59.620Z,101384.88
2022-09-15T18:15:27.026Z,101377.13
2022-09-15T18:17:55.094Z,101376.38
2022-09-15T18:20:22.750Z,101373.00
2022-09-15T18:22:49.505Z,101374.03
2022-09-15T18:25:17.810Z,101374.19
2022-09-15T18:27:44.379Z,101382.19
2022-09-15T18:30:11.344Z,101381.44
2022-09-15T18:32:37.676Z,101385.88
2022-09-15T18:35:04.109Z,101389.50
2022-09-15T18:37:30.504Z,101387.84
2022-09-15T18:39:56.942Z,101394.06
2022-09-15T18:42:23.615Z,101395.03
2022-09-15T18:44:51.602Z,101396.88
2022-09-15T18:47:17.907Z,101395.19
2022-09-15T18:49:44.269Z,101400.47
2022-09-15T18:52:11.285Z,101402.31
2022-09-15T18:54:37.644Z,101404.97
2022-09-15T18:57:03.983Z,101410.25
2022-09-15T18:59:30.346Z,101412.03
2022-09-15T19:01:56.753Z,101408.63
2022-09-15T19:04:23.256Z,101412.16
2022-09-15T19:06:49.618Z,101419.16
2022-09-15T19:09:15.982Z,101419.22
2022-09-15T19:11:42.310Z,101431.47
2022-09-15T19:14:08.695Z,101427.13
2022-09-15T19:16:56.606Z,101431.53
2022-09-15T19:19:21.578Z,101431.63
2022-09-15T19:21:47.987Z,101428.13
2022-09-15T19:24:14.335Z,101427.28
2022-09-15T19:26:40.696Z,101422.13
2022-09-15T19:29:07.049Z,101435.25
2022-09-15T19:31:33.412Z,101427.41
2022-09-15T19:33:59.779Z,101425.66
2022-09-15T19:36:28.715Z,101435.28
2022-09-15T19:38:55.924Z,101438.84
2022-09-15T19:41:22.282Z,101441.53
2022-09-15T19:43:48.599Z,101446.81
2022-09-15T19:46:16.362Z,101445.97
2022-09-15T19:48:46.535Z,101451.28
2022-09-15T19:51:16.928Z,101443.47
2022-09-15T19:53:43.729Z,101447.84
2022-09-15T19:56:13.815Z,101449.59
2022-09-15T19:58:40.300Z,101450.56
2022-09-15T20:01:06.753Z,101459.31
2022-09-15T20:03:33.154Z,101455.84
2022-09-15T20:05:59.471Z,101454.19
2022-09-15T20:08:25.862Z,101454.19
2022-09-15T20:10:52.409Z,101454.28
2022-09-15T20:13:18.771Z,101457.81
2022-09-15T20:15:54.873Z,101454.44
2022-09-15T20:18:21.233Z,101453.66
2022-09-15T20:20:47.546Z,101455.50
2022-09-15T20:23:13.936Z,101452.97
2022-09-15T20:25:40.321Z,101451.28
2022-09-15T20:28:06.697Z,101448.75
2022-09-15T20:30:33.136Z,101447.09
2022-09-15T20:32:59.548Z,101447.19
2022-09-15T20:35:25.896Z,101450.75
2022-09-15T20:37:52.285Z,101450.78
2022-09-15T20:40:18.668Z,101463.09
2022-09-15T20:42:45.052Z,101466.66
2022-09-15T20:45:11.408Z,101459.72
2022-09-15T20:47:37.789Z,101465.91
2022-09-15T20:50:04.303Z,101465.09
2022-09-15T20:52:33.643Z,101467.75
2022-09-15T20:55:04.063Z,101473.06
2022-09-15T20:57:30.385Z,101464.34
2022-09-15T20:59:56.782Z,101469.66
2022-09-15T21:02:23.145Z,101470.59
2022-09-15T21:04:49.524Z,101477.59
2022-09-15T21:07:15.860Z,101472.44
2022-09-15T21:09:42.249Z,101480.28
2022-09-15T21:12:08.584Z,101470.72
2022-09-15T21:14:34.966Z,101471.59
2022-09-15T21:17:01.303Z,101471.59
2022-09-15T21:19:27.685Z,101477.75
2022-09-15T21:21:54.043Z,101477.78
2022-09-15T21:24:20.391Z,101481.28
2022-09-15T21:26:46.733Z,101477.00
2022-09-15T21:29:13.174Z,101477.00
2022-09-15T21:31:39.533Z,101488.38
2022-09-15T21:34:05.873Z,101490.16
2022-09-15T21:36:32.198Z,101485.84
2022-09-15T21:38:59.300Z,101485.00
2022-09-15T21:41:26.665Z,101478.13
2022-09-15T21:43:53.933Z,101486.03
2022-09-15T21:46:22.243Z,101476.53
2022-09-15T21:48:49.056Z,101483.56
2022-09-15T21:51:18.758Z,101490.56
2022-09-15T21:53:50.619Z,101486.28
2022-09-15T21:56:16.925Z,101483.69
2022-09-15T21:58:43.558Z,101482.91
2022-09-15T22:01:19.205Z,101485.56
2022-09-15T22:03:49.711Z,101489.13
2022-09-15T22:06:16.241Z,101483.03
2022-09-15T22:08:42.633Z,101491.75
2022-09-15T22:11:09.881Z,101499.63
2022-09-15T22:13:37.727Z,101491.78
2022-09-15T22:16:05.303Z,101495.28
2022-09-15T22:18:31.880Z,101492.66
2022-09-15T22:21:12.162Z,101496.16
2022-09-15T22:23:39.037Z,101491.78
2022-09-15T22:26:06.792Z,101493.53
2022-09-15T22:28:33.206Z,101490.00
2022-09-15T22:31:04.222Z,101489.19
2022-09-15T22:33:30.680Z,101490.00
2022-09-15T22:35:57.054Z,101496.16
2022-09-15T22:38:24.157Z,101494.44
2022-09-15T22:40:50.870Z,101494.47
2022-09-15T22:43:17.296Z,101505.81
2022-09-15T22:45:43.807Z,101499.72
2022-09-15T22:48:10.258Z,101506.69
2022-09-15T22:50:36.629Z,101499.75
2022-09-15T22:53:02.996Z,101500.66
2022-09-15T22:55:32.428Z,101504.19
2022-09-15T22:57:58.865Z,101503.31
2022-09-15T23:00:25.224Z,101505.94
2022-09-15T23:02:51.625Z,101504.19
2022-09-15T23:05:18.009Z,101512.03
2022-09-15T23:07:44.379Z,101505.06
2022-09-15T23:10:10.698Z,101509.44
2022-09-15T23:12:37.059Z,101511.22
2022-09-15T23:15:03.467Z,101508.59
2022-09-15T23:17:33.576Z,101502.53
2022-09-15T23:20:00.330Z,101503.41
2022-09-15T23:22:26.685Z,101510.34
2022-09-15T23:24:53.063Z,101512.97
2022-09-15T23:27:19.403Z,101503.41
2022-09-15T23:29:45.759Z,101502.56
2022-09-15T23:32:12.111Z,101499.97
2022-09-15T23:34:38.703Z,101508.69
2022-09-15T23:37:05.055Z,101502.63
2022-09-15T23:39:31.399Z,101505.22
2022-09-15T23:41:57.758Z,101505.25
2022-09-15T23:44:24.167Z,101514.88
2022-09-15T23:46:50.522Z,101501.81
2022-09-15T23:49:18.839Z,101507.06
2022-09-15T23:51:45.357Z,101514.88
2022-09-15T23:54:11.747Z,101517.53
2022-09-15T23:56:38.123Z,101514.91
2022-09-15T23:59:04.474Z,101514.09
